sensor_id;sensor_type;location;lat;lon;timestamp;pressure;altitude;pressure_sealevel;temperature;humidity
34925;BME280;21130;51.728;8.748;2023-02-22T00:01:15;100437.94;;;5.62;100.00
34925;BME280;21130;51.728;8.748;2023-02-22T00:03:52;100440.06;;;5.60;100.00
34925;BME280;21130;51.728;8.748;2023-02-22T00:06:21;100434.56;;;5.53;100.00
34925;BME280;21130;51.728;8.748;2023-02-22T00:08:51;100435.81;;;5.44;100.00
34925;BME280;21130;51.728;8.748;2023-02-22T00:11:18;100433.75;;;5.39;100.00
34925;BME280;21130;51.728;8.748;2023-02-22T00:13:45;100432.44;;;5.29;100.00
34925;BME280;21130;51.728;8.748;2023-02-22T00:16:15;100428.63;;;5.16;100.00
34925;BME280;21130;51.728;8.748;2023-02-22T00:18:42;100426.53;;;5.05;100.00
34925;BME280;21130;51.728;8.748;2023-02-22T00:21:11;100427.34;;;4.99;100.00
34925;BME280;21130;51.728;8.748;2023-02-22T00:23:40;100418.69;;;4.95;100.00
34925;BME280;21130;51.728;8.748;2023-02-22T00:26:13;100418.25;;;4.85;100.00
34925;BME280;21130;51.728;8.748;2023-02-22T00:28:43;100424.63;;;4.79;100.00
34925;BME280;21130;51.728;8.748;2023-02-22T00:31:09;100419.13;;;4.79;100.00
34925;BME280;21130;51.728;8.748;2023-02-22T00:33:37;100420.16;;;4.78;100.00
34925;BME280;21130;51.728;8.748;2023-02-22T00:36:05;100416.34;;;4.72;100.00
34925;BME280;21130;51.728;8.748;2023-02-22T00:38:31;100413.59;;;4.72;100.00
34925;BME280;21130;51.728;8.748;2023-02-22T00:40:57;100413.81;;;4.64;100.00
34925;BME280;21130;51.728;8.748;2023-02-22T00:43:25;100416.13;;;4.67;100.00
34925;BME280;21130;51.728;8.748;2023-02-22T00:45:52;100409.56;;;4.62;100.00
34925;BME280;21130;51.728;8.748;2023-02-22T00:48:18;100404.06;;;4.62;100.00
34925;BME280;21130;51.728;8.748;2023-02-22T00:50:45;100399.16;;;4.50;100.00
34925;BME280;21130;51.728;8.748;2023-02-22T00:53:14;100399.38;;;4.49;100.00
34925;BME280;21130;51.728;8.748;2023-02-22T00:55:41;100397.06;;;4.52;100.00
34925;BME280;21130;51.728;8.748;2023-02-22T00:58:07;100391.56;;;4.52;100.00
34925;BME280;21130;51.728;8.748;2023-02-22T01:00:37;100395.59;;;4.57;100.00
34925;BME280;21130;51.728;8.748;2023-02-22T01:03:04;100398.78;;;4.73;100.00
34925;BME280;21130;51.728;8.748;2023-02-22T01:05:31;100396.28;;;4.85;100.00
34925;BME280;21130;51.728;8.748;2023-02-22T01:07:58;100385.28;;;5.05;100.00
34925;BME280;21130;51.728;8.748;2023-02-22T01:10:27;100384.63;;;5.23;100.00
34925;BME280;21130;51.728;8.748;2023-02-22T01:12:54;100382.06;;;5.48;100.00
34925;BME280;21130;51.728;8.748;2023-02-22T01:15:23;100374.63;;;5.62;100.00
34925;BME280;21130;51.728;8.748;2023-02-22T01:17:53;100372.28;;;5.66;100.00
34925;BME280;21130;51.728;8.748;2023-02-22T01:20:20;100376.25;;;5.76;100.00
34925;BME280;21130;51.728;8.748;2023-02-22T01:22:49;100375.19;;;5.84;100.00
34925;BME280;21130;51.728;8.748;2023-02-22T01:25:19;100365.81;;;5.92;100.00
34925;BME280;21130;51.728;8.748;2023-02-22T01:27:46;100370.28;;;5.93;100.00
34925;BME280;21130;51.728;8.748;2023-02-22T01:30:15;100366.50;;;5.87;100.00
34925;BME280;21130;51.728;8.748;2023-02-22T01:32:44;100367.09;;;6.02;100.00
34925;BME280;21130;51.728;8.748;2023-02-22T01:35:14;100363.50;;;6.02;100.00
34925;BME280;21130;51.728;8.748;2023-02-22T01:37:42;100357.13;;;6.01;100.00
34925;BME280;21130;51.728;8.748;2023-02-22T01:40:17;100355.66;;;5.99;100.00
34925;BME280;21130;51.728;8.748;2023-02-22T01:42:46;100353.53;;;6.01;100.00
34925;BME280;21130;51.728;8.748;2023-02-22T01:45:41;100345.91;;;6.03;100.00
34925;BME280;21130;51.728;8.748;2023-02-22T01:48:11;100341.28;;;5.90;100.00
34925;BME280;21130;51.728;8.748;2023-02-22T01:50:41;100343.78;;;5.92;100.00
34925;BME280;21130;51.728;8.748;2023-02-22T01:53:10;100332.34;;;6.01;100.00
34925;BME280;21130;51.728;8.748;2023-02-22T01:55:39;100337.50;;;5.84;100.00
34925;BME280;21130;51.728;8.748;2023-02-22T01:58:07;100335.13;;;5.88;100.00
34925;BME280;21130;51.728;8.748;2023-02-22T02:00:34;100329.44;;;5.83;100.00
34925;BME280;21130;51.728;8.748;2023-02-22T02:03:04;100332.59;;;5.87;100.00
34925;BME280;21130;51.728;8.748;2023-02-22T02:05:34;100328.97;;;5.99;100.00
34925;BME280;21130;51.728;8.748;2023-02-22T02:08:08;100325.53;;;6.04;100.00
34925;BME280;21130;51.728;8.748;2023-02-22T02:10:38;100323.47;;;5.93;100.00
34925;BME280;21130;51.728;8.748;2023-02-22T02:13:05;100327.28;;;5.98;100.00
34925;BME280;21130;51.728;8.748;2023-02-22T02:15:32;100325.59;;;5.97;100.00
34925;BME280;21130;51.728;8.748;2023-02-22T02:18:02;100319.19;;;6.03;100.00
34925;BME280;21130;51.728;8.748;2023-02-22T02:20:36;100313.72;;;5.97;100.00
34925;BME280;21130;51.728;8.748;2023-02-22T02:23:17;100319.00;;;5.92;100.00
34925;BME280;21130;51.728;8.748;2023-02-22T02:26:25;100314.19;;;5.80;100.00
34925;BME280;21130;51.728;8.748;2023-02-22T02:31:59;100310.88;;;5.65;100.00
34925;BME280;21130;51.728;8.748;2023-02-22T02:34:34;100303.25;;;5.60;100.00
34925;BME280;21130;51.728;8.748;2023-02-22T02:37:32;100299.09;;;5.45;100.00
34925;BME280;21130;51.728;8.748;2023-02-22T02:40:08;100299.53;;;5.35;100.00
34925;BME280;21130;51.728;8.748;2023-02-22T02:42:52;100299.78;;;5.27;100.00
34925;BME280;21130;51.728;8.748;2023-02-22T02:45:22;100287.63;;;5.48;100.00
34925;BME280;21130;51.728;8.748;2023-02-22T02:47:54;100293.50;;;5.65;100.00
34925;BME280;21130;51.728;8.748;2023-02-22T02:50:25;100289.50;;;5.60;100.00
34925;BME280;21130;51.728;8.748;2023-02-22T02:52:56;100285.66;;;5.68;100.00
34925;BME280;21130;51.728;8.748;2023-02-22T02:55:26;100285.72;;;5.55;100.00
34925;BME280;21130;51.728;8.748;2023-02-22T02:57:53;100293.97;;;5.55;100.00
34925;BME280;21130;51.728;8.748;2023-02-22T03:00:23;100289.22;;;5.75;100.00
34925;BME280;21130;51.728;8.748;2023-02-22T03:03:03;100284.28;;;5.84;100.00
34925;BME280;21130;51.728;8.748;2023-02-22T03:05:56;100283.63;;;6.02;100.00
34925;BME280;21130;51.728;8.748;2023-02-22T03:08:31;100273.47;;;5.96;100.00
34925;BME280;21130;51.728;8.748;2023-02-22T03:11:06;100274.72;;;5.93;100.00
34925;BME280;21130;51.728;8.748;2023-02-22T03:13:46;100273.50;;;5.82;100.00
34925;BME280;21130;51.728;8.748;2023-02-22T03:16:20;100266.94;;;5.83;100.00
34925;BME280;21130;51.728;8.748;2023-02-22T03:18:55;100275.44;;;5.82;100.00
34925;BME280;21130;51.728;8.748;2023-02-22T03:21:27;100271.56;;;5.90;100.00
34925;BME280;21130;51.728;8.748;2023-02-22T03:24:01;100269.22;;;5.93;100.00
34925;BME280;21130;51.728;8.748;2023-02-22T03:26:34;100268.63;;;5.84;100.00
34925;BME280;21130;51.728;8.748;2023-02-22T03:29:04;100273.13;;;5.72;100.00
34925;BME280;21130;51.728;8.748;2023-02-22T03:31:34;100263.78;;;5.80;100.00
34925;BME280;21130;51.728;8.748;2023-02-22T03:34:07;100263.53;;;5.95;100.00
34925;BME280;21130;51.728;8.748;2023-02-22T03:36:38;100266.66;;;5.92;100.00
34925;BME280;21130;51.728;8.748;2023-02-22T03:39:10;100266.72;;;5.85;100.00
34925;BME280;21130;51.728;8.748;2023-02-22T03:41:42;100265.47;;;5.81;100.00
34925;BME280;21130;51.728;8.748;2023-02-22T03:44:20;100258.28;;;5.73;100.00
34925;BME280;21130;51.728;8.748;2023-02-22T03:46:50;100262.16;;;5.59;100.00
34925;BME280;21130;51.728;8.748;2023-02-22T03:49:31;100262.97;;;5.66;100.00
34925;BME280;21130;51.728;8.748;2023-02-22T03:51:59;100265.06;;;5.77;100.00
34925;BME280;21130;51.728;8.748;2023-02-22T03:54:27;100259.75;;;5.82;100.00
34925;BME280;21130;51.728;8.748;2023-02-22T03:56:57;100263.34;;;5.83;100.00
34925;BME280;21130;51.728;8.748;2023-02-22T03:59:26;100260.00;;;5.74;100.00
34925;BME280;21130;51.728;8.748;2023-02-22T04:01:54;100268.88;;;5.76;100.00
34925;BME280;21130;51.728;8.748;2023-02-22T04:04:21;100260.41;;;5.71;100.00
34925;BME280;21130;51.728;8.748;2023-02-22T04:06:50;100259.19;;;5.67;100.00
34925;BME280;21130;51.728;8.748;2023-02-22T04:09:17;100253.88;;;5.66;100.00
34925;BME280;21130;51.728;8.748;2023-02-22T04:11:44;100255.88;;;5.52;100.00
34925;BME280;21130;51.728;8.748;2023-02-22T04:14:11;100256.72;;;5.52;100.00
34925;BME280;21130;51.728;8.748;2023-02-22T04:16:38;100245.50;;;5.47;100.00
34925;BME280;21130;51.728;8.748;2023-02-22T04:19:04;100250.44;;;5.32;100.00
34925;BME280;21130;51.728;8.748;2023-02-22T04:21:31;100257.22;;;5.29;100.00
34925;BME280;21130;51.728;8.748;2023-02-22T04:23:58;100241.75;;;5.35;100.00
34925;BME280;21130;51.728;8.748;2023-02-22T04:26:25;100250.66;;;5.24;100.00
34925;BME280;21130;51.728;8.748;2023-02-22T04:28:51;100248.78;;;5.17;100.00
34925;BME280;21130;51.728;8.748;2023-02-22T04:31:18;100247.91;;;5.24;100.00
34925;BME280;21130;51.728;8.748;2023-02-22T04:33:44;100241.75;;;5.28;100.00
34925;BME280;21130;51.728;8.748;2023-02-22T04:36:11;100245.53;;;5.40;100.00
34925;BME280;21130;51.728;8.748;2023-02-22T04:41:16;100240.03;;;5.34;100.00
34925;BME280;21130;51.728;8.748;2023-02-22T04:43:42;100238.41;;;5.19;100.00
34925;BME280;21130;51.728;8.748;2023-02-22T04:46:09;100237.78;;;5.17;100.00
34925;BME280;21130;51.728;8.748;2023-02-22T04:48:35;100241.81;;;5.15;100.00
34925;BME280;21130;51.728;8.748;2023-02-22T04:51:02;100239.69;;;5.04;100.00
34925;BME280;21130;51.728;8.748;2023-02-22T04:53:28;100240.13;;;5.01;100.00
34925;BME280;21130;51.728;8.748;2023-02-22T04:55:55;100237.81;;;4.97;100.00
34925;BME280;21130;51.728;8.748;2023-02-22T04:58:23;100235.06;;;4.97;100.00
34925;BME280;21130;51.728;8.748;2023-02-22T05:00:49;100234.19;;;5.04;100.00
34925;BME280;21130;51.728;8.748;2023-02-22T05:03:17;100234.00;;;5.05;100.00
34925;BME280;21130;51.728;8.748;2023-02-22T05:05:43;100232.31;;;4.97;100.00
34925;BME280;21130;51.728;8.748;2023-02-22T05:08:10;100224.72;;;4.86;100.00
34925;BME280;21130;51.728;8.748;2023-02-22T05:10:37;100230.41;;;4.91;100.00
34925;BME280;21130;51.728;8.748;2023-02-22T05:13:03;100225.59;;;4.80;100.00
34925;BME280;21130;51.728;8.748;2023-02-22T05:15:32;100224.75;;;4.73;100.00
34925;BME280;21130;51.728;8.748;2023-02-22T05:17:58;100227.53;;;4.60;100.00
34925;BME280;21130;51.728;8.748;2023-02-22T05:20:28;100228.16;;;4.62;100.00
34925;BME280;21130;51.728;8.748;2023-02-22T05:22:55;100221.81;;;4.54;100.00
34925;BME280;21130;51.728;8.748;2023-02-22T05:25:22;100224.34;;;4.56;100.00
34925;BME280;21130;51.728;8.748;2023-02-22T05:27:50;100224.13;;;4.51;100.00
34925;BME280;21130;51.728;8.748;2023-02-22T05:30:17;100222.66;;;4.48;100.00
34925;BME280;21130;51.728;8.748;2023-02-22T05:32:45;100221.41;;;4.44;100.00
34925;BME280;21130;51.728;8.748;2023-02-22T05:35:12;100226.69;;;4.39;100.00
34925;BME280;21130;51.728;8.748;2023-02-22T05:37:38;100224.13;;;4.38;100.00
34925;BME280;21130;51.728;8.748;2023-02-22T05:40:05;100224.97;;;4.38;100.00
34925;BME280;21130;51.728;8.748;2023-02-22T05:42:33;100224.56;;;4.28;100.00
34925;BME280;21130;51.728;8.748;2023-02-22T05:44:59;100219.69;;;4.30;100.00
34925;BME280;21130;51.728;8.748;2023-02-22T05:47:26;100217.59;;;4.32;100.00
34925;BME280;21130;51.728;8.748;2023-02-22T05:49:54;100213.16;;;4.24;100.00
34925;BME280;21130;51.728;8.748;2023-02-22T05:52:21;100208.06;;;4.21;100.00
34925;BME280;21130;51.728;8.748;2023-02-22T05:54:48;100213.34;;;4.23;100.00
34925;BME280;21130;51.728;8.748;2023-02-22T05:57:15;100208.72;;;4.17;100.00
34925;BME280;21130;51.728;8.748;2023-02-22T05:59:41;100210.59;;;4.16;100.00
34925;BME280;21130;51.728;8.748;2023-02-22T06:02:08;100212.31;;;4.17;100.00
34925;BME280;21130;51.728;8.748;2023-02-22T06:04:35;100205.31;;;4.21;100.00
34925;BME280;21130;51.728;8.748;2023-02-22T06:07:02;100207.22;;;4.27;100.00
34925;BME280;21130;51.728;8.748;2023-02-22T06:09:29;100198.13;;;4.33;100.00
34925;BME280;21130;51.728;8.748;2023-02-22T06:11:56;100204.50;;;4.34;100.00
34925;BME280;21130;51.728;8.748;2023-02-22T06:14:22;100200.47;;;4.30;100.00
34925;BME280;21130;51.728;8.748;2023-02-22T06:16:52;100201.09;;;4.32;100.00
34925;BME280;21130;51.728;8.748;2023-02-22T06:19:20;100199.63;;;4.29;100.00
34925;BME280;21130;51.728;8.748;2023-02-22T06:21:50;100195.59;;;4.39;100.00
34925;BME280;21130;51.728;8.748;2023-02-22T06:24:18;100199.00;;;4.34;100.00
34925;BME280;21130;51.728;8.748;2023-02-22T06:26:45;100203.63;;;4.33;100.00
34925;BME280;21130;51.728;8.748;2023-02-22T06:29:12;100196.66;;;4.31;100.00
34925;BME280;21130;51.728;8.748;2023-02-22T06:31:38;100203.63;;;4.33;100.00
34925;BME280;21130;51.728;8.748;2023-02-22T06:34:05;100201.09;;;4.32;100.00
34925;BME280;21130;51.728;8.748;2023-02-22T06:36:31;100205.09;;;4.36;100.00
34925;BME280;21130;51.728;8.748;2023-02-22T06:38:58;100200.06;;;4.40;100.00
34925;BME280;21130;51.728;8.748;2023-02-22T06:41:25;100208.94;;;4.42;100.00
34925;BME280;21130;51.728;8.748;2023-02-22T06:43:52;100212.06;;;4.39;100.00
34925;BME280;21130;51.728;8.748;2023-02-22T06:46:18;100211.25;;;4.38;100.00
34925;BME280;21130;51.728;8.748;2023-02-22T06:48:46;100207.00;;;4.49;100.00
34925;BME280;21130;51.728;8.748;2023-02-22T06:51:14;100209.97;;;4.54;100.00
34925;BME280;21130;51.728;8.748;2023-02-22T06:53:40;100212.94;;;4.59;100.00
34925;BME280;21130;51.728;8.748;2023-02-22T06:56:07;100206.78;;;4.64;100.00
34925;BME280;21130;51.728;8.748;2023-02-22T06:58:34;100206.38;;;4.67;100.00
34925;BME280;21130;51.728;8.748;2023-02-22T07:01:01;100207.81;;;4.76;100.00
34925;BME280;21130;51.728;8.748;2023-02-22T07:03:28;100205.91;;;4.83;100.00
34925;BME280;21130;51.728;8.748;2023-02-22T07:05:54;100205.91;;;4.90;100.00
34925;BME280;21130;51.728;8.748;2023-02-22T07:08:21;100212.00;;;4.98;100.00
34925;BME280;21130;51.728;8.748;2023-02-22T07:10:48;100200.56;;;5.08;100.00
34925;BME280;21130;51.728;8.748;2023-02-22T07:13:15;100201.16;;;5.17;100.00
34925;BME280;21130;51.728;8.748;2023-02-22T07:15:43;100201.31;;;5.35;100.00
34925;BME280;21130;51.728;8.748;2023-02-22T07:18:09;100205.53;;;5.38;100.00
34925;BME280;21130;51.728;8.748;2023-02-22T07:20:36;100202.50;;;5.53;100.00
34925;BME280;21130;51.728;8.748;2023-02-22T07:23:04;100202.22;;;5.61;100.00
34925;BME280;21130;51.728;8.748;2023-02-22T07:25:30;100208.09;;;5.71;100.00
34925;BME280;21130;51.728;8.748;2023-02-22T07:27:57;100202.97;;;5.81;100.00
34925;BME280;21130;51.728;8.748;2023-02-22T07:30:26;100212.41;;;5.99;100.00
34925;BME280;21130;51.728;8.748;2023-02-22T07:32:57;100206.88;;;6.05;100.00
34925;BME280;21130;51.728;8.748;2023-02-22T07:35:25;100211.66;;;6.17;100.00
34925;BME280;21130;51.728;8.748;2023-02-22T07:37:52;100204.31;;;6.36;100.00
34925;BME280;21130;51.728;8.748;2023-02-22T07:40:19;100205.66;;;6.52;100.00
34925;BME280;21130;51.728;8.748;2023-02-22T07:42:50;100207.56;;;6.51;100.00
34925;BME280;21130;51.728;8.748;2023-02-22T07:45:17;100204.47;;;6.66;100.00
34925;BME280;21130;51.728;8.748;2023-02-22T07:47:44;100201.19;;;6.76;100.00
34925;BME280;21130;51.728;8.748;2023-02-22T07:50:13;100202.91;;;6.95;100.00
34925;BME280;21130;51.728;8.748;2023-02-22T07:52:39;100204.69;;;7.08;100.00
34925;BME280;21130;51.728;8.748;2023-02-22T07:55:06;100198.63;;;7.18;100.00
34925;BME280;21130;51.728;8.748;2023-02-22T07:57:33;100190.50;;;7.23;100.00
34925;BME280;21130;51.728;8.748;2023-02-22T07:59:59;100197.31;;;7.39;100.00
34925;BME280;21130;51.728;8.748;2023-02-22T08:02:26;100191.38;;;7.53;100.00
34925;BME280;21130;51.728;8.748;2023-02-22T08:04:52;100181.72;;;7.63;100.00
34925;BME280;21130;51.728;8.748;2023-02-22T08:07:20;100185.94;;;7.77;100.00
34925;BME280;21130;51.728;8.748;2023-02-22T08:09:46;100176.38;;;7.91;100.00
34925;BME280;21130;51.728;8.748;2023-02-22T08:12:13;100177.22;;;7.92;100.00
34925;BME280;21130;51.728;8.748;2023-02-22T08:14:40;100176.19;;;8.05;100.00
34925;BME280;21130;51.728;8.748;2023-02-22T08:17:07;100178.53;;;8.31;100.00
34925;BME280;21130;51.728;8.748;2023-02-22T08:19:35;100174.94;;;8.31;100.00
34925;BME280;21130;51.728;8.748;2023-02-22T08:22:03;100170.41;;;8.48;100.00
34925;BME280;21130;51.728;8.748;2023-02-22T08:24:31;100172.22;;;8.66;100.00
34925;BME280;21130;51.728;8.748;2023-02-22T08:26:57;100168.13;;;8.80;100.00
34925;BME280;21130;51.728;8.748;2023-02-22T08:29:24;100162.81;;;8.91;100.00
34925;BME280;21130;51.728;8.748;2023-02-22T08:31:57;100162.22;;;8.89;100.00
34925;BME280;21130;51.728;8.748;2023-02-22T08:34:24;100173.03;;;9.14;100.00
34925;BME280;21130;51.728;8.748;2023-02-22T08:36:51;100166.66;;;9.01;100.00
34925;BME280;21130;51.728;8.748;2023-02-22T08:39:17;100164.00;;;8.95;100.00
34925;BME280;21130;51.728;8.748;2023-02-22T08:41:45;100162.91;;;9.07;100.00
34925;BME280;21130;51.728;8.748;2023-02-22T08:44:12;100161.34;;;9.12;100.00
34925;BME280;21130;51.728;8.748;2023-02-22T08:46:38;100159.25;;;9.30;100.00
34925;BME280;21130;51.728;8.748;2023-02-22T08:49:05;100155.38;;;9.43;100.00
34925;BME280;21130;51.728;8.748;2023-02-22T08:51:33;100159.50;;;9.58;100.00
34925;BME280;21130;51.728;8.748;2023-02-22T08:54:00;100163.63;;;9.84;100.00
34925;BME280;21130;51.728;8.748;2023-02-22T08:56:27;100158.09;;;9.84;100.00
34925;BME280;21130;51.728;8.748;2023-02-22T08:58:55;100152.50;;;10.12;100.00
34925;BME280;21130;51.728;8.748;2023-02-22T09:01:23;100147.13;;;10.23;100.00
34925;BME280;21130;51.728;8.748;2023-02-22T09:03:50;100152.94;;;10.72;100.00
34925;BME280;21130;51.728;8.748;2023-02-22T09:06:16;100148.22;;;11.33;100.00
34925;BME280;21130;51.728;8.748;2023-02-22T09:08:43;100146.31;;;11.61;100.00
34925;BME280;21130;51.728;8.748;2023-02-22T09:11:10;100145.69;;;11.54;100.00
34925;BME280;21130;51.728;8.748;2023-02-22T09:13:37;100138.91;;;11.66;100.00
34925;BME280;21130;51.728;8.748;2023-02-22T09:16:05;100139.47;;;12.23;100.00
34925;BME280;21130;51.728;8.748;2023-02-22T09:18:31;100141.81;;;12.04;100.00
34925;BME280;21130;51.728;8.748;2023-02-22T09:20:58;100141.97;;;11.92;100.00
34925;BME280;21130;51.728;8.748;2023-02-22T09:23:25;100134.41;;;11.87;100.00
34925;BME280;21130;51.728;8.748;2023-02-22T09:25:51;100139.09;;;11.38;100.00
34925;BME280;21130;51.728;8.748;2023-02-22T09:28:18;100133.19;;;11.29;100.00
34925;BME280;21130;51.728;8.748;2023-02-22T09:30:44;100124.31;;;11.54;100.00
34925;BME280;21130;51.728;8.748;2023-02-22T09:33:14;100130.16;;;11.58;100.00
34925;BME280;21130;51.728;8.748;2023-02-22T09:35:43;100124.94;;;11.61;100.00
34925;BME280;21130;51.728;8.748;2023-02-22T09:38:12;100120.44;;;11.82;100.00
34925;BME280;21130;51.728;8.748;2023-02-22T09:40:42;100112.88;;;12.05;100.00
34925;BME280;21130;51.728;8.748;2023-02-22T09:43:23;100111.34;;;12.19;100.00
34925;BME280;21130;51.728;8.748;2023-02-22T09:46:14;100110.47;;;12.51;100.00
34925;BME280;21130;51.728;8.748;2023-02-22T09:48:54;100115.25;;;12.61;100.00
34925;BME280;21130;51.728;8.748;2023-02-22T09:51:24;100111.06;;;13.06;100.00
34925;BME280;21130;51.728;8.748;2023-02-22T09:53:56;100110.41;;;13.41;100.00
34925;BME280;21130;51.728;8.748;2023-02-22T09:56:25;100098.53;;;13.08;100.00
34925;BME280;21130;51.728;8.748;2023-02-22T09:58:55;100100.69;;;13.54;100.00
34925;BME280;21130;51.728;8.748;2023-02-22T10:01:27;100103.22;;;13.55;100.00
34925;BME280;21130;51.728;8.748;2023-02-22T10:04:00;100104.88;;;13.51;100.00
34925;BME280;21130;51.728;8.748;2023-02-22T10:06:30;100097.28;;;13.31;100.00
34925;BME280;21130;51.728;8.748;2023-02-22T10:09:00;100097.88;;;13.44;100.00
34925;BME280;21130;51.728;8.748;2023-02-22T10:11:42;100101.66;;;13.17;100.00
34925;BME280;21130;51.728;8.748;2023-02-22T10:14:27;100089.56;;;13.69;100.00
34925;BME280;21130;51.728;8.748;2023-02-22T10:17:03;100091.84;;;13.88;100.00
34925;BME280;21130;51.728;8.748;2023-02-22T10:19:43;100097.44;;;14.08;100.00
34925;BME280;21130;51.728;8.748;2023-02-22T10:22:24;100087.69;;;14.11;100.00
34925;BME280;21130;51.728;8.748;2023-02-22T10:24:58;100090.47;;;13.85;100.00
34925;BME280;21130;51.728;8.748;2023-02-22T10:27:31;100088.16;;;13.56;100.00
34925;BME280;21130;51.728;8.748;2023-02-22T10:30:04;100083.78;;;13.08;100.00
34925;BME280;21130;51.728;8.748;2023-02-22T10:32:46;100082.34;;;12.95;100.00
34925;BME280;21130;51.728;8.748;2023-02-22T10:35:20;100082.91;;;12.97;100.00
34925;BME280;21130;51.728;8.748;2023-02-22T10:37:49;100078.50;;;13.11;100.00
34925;BME280;21130;51.728;8.748;2023-02-22T10:40:21;100077.28;;;13.50;100.00
34925;BME280;21130;51.728;8.748;2023-02-22T10:42:57;100069.78;;;13.81;100.00
34925;BME280;21130;51.728;8.748;2023-02-22T10:45:26;100071.50;;;13.87;100.00
34925;BME280;21130;51.728;8.748;2023-02-22T10:47:55;100074.00;;;14.04;100.00
34925;BME280;21130;51.728;8.748;2023-02-22T10:50:25;100062.56;;;14.11;100.00
34925;BME280;21130;51.728;8.748;2023-02-22T10:52:54;100064.53;;;13.90;100.00
34925;BME280;21130;51.728;8.748;2023-02-22T10:55:20;100068.72;;;13.82;100.00
34925;BME280;21130;51.728;8.748;2023-02-22T10:57:49;100064.53;;;13.85;100.00
34925;BME280;21130;51.728;8.748;2023-02-22T11:00:19;100064.22;;;13.96;100.00
34925;BME280;21130;51.728;8.748;2023-02-22T11:02:51;100066.75;;;13.88;100.00
34925;BME280;21130;51.728;8.748;2023-02-22T11:05:32;100062.31;;;14.12;100.00
34925;BME280;21130;51.728;8.748;2023-02-22T11:08:25;100069.22;;;13.69;100.00
34925;BME280;21130;51.728;8.748;2023-02-22T11:10:53;100054.72;;;13.67;100.00
34925;BME280;21130;51.728;8.748;2023-02-22T11:13:25;100059.47;;;13.97;100.00
34925;BME280;21130;51.728;8.748;2023-02-22T11:15:54;100058.38;;;13.98;100.00
34925;BME280;21130;51.728;8.748;2023-02-22T11:18:25;100053.91;;;13.87;100.00
34925;BME280;21130;51.728;8.748;2023-02-22T11:21:01;100051.91;;;13.67;100.00
34925;BME280;21130;51.728;8.748;2023-02-22T11:23:29;100042.47;;;14.03;100.00
34925;BME280;21130;51.728;8.748;2023-02-22T11:26:02;100044.44;;;13.82;100.00
34925;BME280;21130;51.728;8.748;2023-02-22T11:28:31;100042.47;;;13.78;100.00
34925;BME280;21130;51.728;8.748;2023-02-22T11:31:09;100043.28;;;13.58;100.00
34925;BME280;21130;51.728;8.748;2023-02-22T11:33:37;100036.31;;;14.07;100.00
34925;BME280;21130;51.728;8.748;2023-02-22T11:36:06;100041.66;;;13.93;100.00
34925;BME280;21130;51.728;8.748;2023-02-22T11:38:35;100041.91;;;14.01;100.00
34925;BME280;21130;51.728;8.748;2023-02-22T11:41:06;100039.13;;;14.12;100.00
34925;BME280;21130;51.728;8.748;2023-02-22T11:43:33;100034.66;;;14.26;100.00
34925;BME280;21130;51.728;8.748;2023-02-22T11:46:02;100031.81;;;14.52;100.00
34925;BME280;21130;51.728;8.748;2023-02-22T11:48:32;100029.56;;;14.48;100.00
34925;BME280;21130;51.728;8.748;2023-02-22T11:51:22;100026.00;;;14.33;100.00
34925;BME280;21130;51.728;8.748;2023-02-22T11:54:10;100019.00;;;14.40;100.00
34925;BME280;21130;51.728;8.748;2023-02-22T11:56:44;100017.31;;;14.55;100.00
34925;BME280;21130;51.728;8.748;2023-02-22T11:59:22;100012.06;;;14.22;100.00
34925;BME280;21130;51.728;8.748;2023-02-22T12:01:55;100012.25;;;14.62;100.00
34925;BME280;21130;51.728;8.748;2023-02-22T12:04:54;100008.91;;;14.65;100.00
34925;BME280;21130;51.728;8.748;2023-02-22T12:07:36;100003.53;;;14.84;100.00
34925;BME280;21130;51.728;8.748;2023-02-22T12:10:18;100003.00;;;14.77;100.00
34925;BME280;21130;51.728;8.748;2023-02-22T12:12:59;100003.53;;;14.79;100.00
34925;BME280;21130;51.728;8.748;2023-02-22T12:15:29;99998.88;;;14.54;100.00
34925;BME280;21130;51.728;8.748;2023-02-22T12:18:01;99993.28;;;14.43;100.00
34925;BME280;21130;51.728;8.748;2023-02-22T12:20:36;99992.66;;;14.72;100.00
34925;BME280;21130;51.728;8.748;2023-02-22T12:23:15;99979.44;;;14.98;100.00
34925;BME280;21130;51.728;8.748;2023-02-22T12:25:53;99979.31;;;15.19;100.00
34925;BME280;21130;51.728;8.748;2023-02-22T12:28:28;99985.13;;;15.32;100.00
34925;BME280;21130;51.728;8.748;2023-02-22T12:31:05;99986.22;;;15.31;100.00
34925;BME280;21130;51.728;8.748;2023-02-22T12:33:43;99970.81;;;14.89;100.00
34925;BME280;21130;51.728;8.748;2023-02-22T12:36:13;99980.31;;;14.88;100.00
34925;BME280;21130;51.728;8.748;2023-02-22T12:38:44;99974.66;;;15.04;100.00
34925;BME280;21130;51.728;8.748;2023-02-22T12:41:21;99968.72;;;15.16;100.00
34925;BME280;21130;51.728;8.748;2023-02-22T12:43:56;99970.84;;;15.34;100.00
34925;BME280;21130;51.728;8.748;2023-02-22T12:46:29;99973.72;;;15.19;100.00
34925;BME280;21130;51.728;8.748;2023-02-22T12:49:03;99976.53;;;15.19;100.00
34925;BME280;21130;51.728;8.748;2023-02-22T12:51:39;99966.72;;;15.21;100.00
34925;BME280;21130;51.728;8.748;2023-02-22T12:54:15;99958.25;;;15.37;100.00
34925;BME280;21130;51.728;8.748;2023-02-22T12:56:48;99964.63;;;14.98;100.00
34925;BME280;21130;51.728;8.748;2023-02-22T12:59:19;99960.59;;;14.49;100.00
34925;BME280;21130;51.728;8.748;2023-02-22T13:01:51;99959.50;;;14.50;100.00
34925;BME280;21130;51.728;8.748;2023-02-22T13:04:19;99946.38;;;14.45;100.00
34925;BME280;21130;51.728;8.748;2023-02-22T13:06:55;99946.41;;;14.40;100.00
34925;BME280;21130;51.728;8.748;2023-02-22T13:09:48;99953.09;;;14.39;100.00